Time;durP1;ratioP1;P1;durP2;ratioP2;P2;SDS_P1;SDS_P2;PMS_P1;PMS_P2;Temp;Humidity;BMP_temperature;BMP_pressure;BME280_temperature;BME280_humidity;BME280_pressure;Samples;Min_cycle;Max_cycle;Signal;HPM_P1;HPM_P2
2022/12/21 00:01:38;;;;;;;13.35;6.63;;;2.40;99.90;;;;;;4995946;28;20397;-74
2022/12/21 00:04:05;;;;;;;12.52;7.20;;;2.50;99.90;;;;;;5022386;28;20039;-75
2022/12/21 00:06:33;;;;;;;13.63;6.95;;;2.60;99.90;;;;;;5002215;28;20029;-75
2022/12/21 00:09:00;;;;;;;12.63;6.32;;;2.60;99.90;;;;;;5008686;28;20524;-75
2022/12/21 00:11:27;;;;;;;12.38;6.82;;;2.70;99.90;;;;;;4992491;28;20124;-76
2022/12/21 00:13:55;;;;;;;11.35;6.60;;;2.80;99.90;;;;;;5021370;28;20694;-75
2022/12/21 00:16:24;;;;;;;14.07;6.07;;;2.80;99.90;;;;;;5022325;28;20105;-75
2022/12/21 00:18:49;;;;;;;9.93;5.75;;;2.80;99.90;;;;;;5006343;28;20492;-75
2022/12/21 00:21:18;;;;;;;11.77;6.47;;;2.80;99.90;;;;;;5001399;28;20035;-75
2022/12/21 00:23:46;;;;;;;12.07;6.22;;;2.80;99.90;;;;;;4998780;28;20092;-74
2022/12/21 00:26:13;;;;;;;10.65;6.00;;;2.80;99.90;;;;;;5018474;28;20109;-75
2022/12/21 00:28:39;;;;;;;10.63;6.28;;;2.80;99.90;;;;;;5018782;28;20049;-75
2022/12/21 00:31:10;;;;;;;14.10;6.95;;;2.70;99.90;;;;;;5020796;28;20029;-75
2022/12/21 00:33:37;;;;;;;14.20;6.68;;;2.70;99.90;;;;;;4996471;28;20057;-75
2022/12/21 00:36:04;;;;;;;10.57;6.07;;;2.80;99.90;;;;;;5003746;28;20038;-74
2022/12/21 00:38:30;;;;;;;15.18;6.93;;;2.80;99.90;;;;;;5003488;28;20036;-75
2022/12/21 00:40:57;;;;;;;14.15;6.75;;;2.70;99.90;;;;;;5018359;28;20164;-75
2022/12/21 00:43:23;;;;;;;12.10;7.45;;;2.60;99.90;;;;;;5003580;28;20030;-75
2022/12/21 00:45:48;;;;;;;14.48;7.03;;;2.70;99.90;;;;;;5003382;28;20068;-75
2022/12/21 00:48:14;;;;;;;13.75;7.22;;;2.80;99.90;;;;;;5003359;28;20492;-75
2022/12/21 00:50:40;;;;;;;13.55;6.97;;;2.80;99.90;;;;;;5020930;28;20026;-75
2022/12/21 00:53:05;;;;;;;11.15;6.13;;;2.90;99.90;;;;;;5020472;28;20349;-75
2022/12/21 00:55:31;;;;;;;13.63;6.82;;;2.90;99.90;;;;;;5020928;28;20080;-75
2022/12/21 00:57:59;;;;;;;11.05;6.25;;;3.00;99.90;;;;;;4989751;28;20037;-75
2022/12/21 01:00:25;;;;;;;9.93;6.07;;;3.00;99.90;;;;;;5002341;28;20030;-75
2022/12/21 01:02:50;;;;;;;12.40;6.85;;;3.10;99.90;;;;;;4999752;28;20059;-75
2022/12/21 01:05:16;;;;;;;13.32;6.28;;;3.20;99.90;;;;;;5018325;28;20588;-75
2022/12/21 01:07:41;;;;;;;12.15;7.10;;;3.10;99.90;;;;;;5019916;28;20112;-74
2022/12/21 01:10:08;;;;;;;9.68;6.10;;;3.20;99.90;;;;;;5010309;28;20061;-74
2022/12/21 01:12:34;;;;;;;8.95;6.18;;;3.20;99.90;;;;;;5000542;28;20037;-75
2022/12/21 01:15:00;;;;;;;12.55;6.85;;;3.00;99.90;;;;;;5019874;28;20474;-75
2022/12/21 01:17:25;;;;;;;11.88;6.45;;;2.80;99.90;;;;;;5003079;28;20128;-74
2022/12/21 01:19:51;;;;;;;14.30;7.40;;;2.70;99.90;;;;;;5021436;28;20061;-74
2022/12/21 01:22:17;;;;;;;12.85;6.63;;;2.60;99.90;;;;;;5017672;28;20037;-75
2022/12/21 01:24:42;;;;;;;13.70;7.32;;;2.70;99.90;;;;;;5020740;28;20256;-74
2022/12/21 01:27:08;;;;;;;13.85;6.32;;;2.80;99.90;;;;;;5018328;28;20030;-75
2022/12/21 01:29:33;;;;;;;13.95;6.00;;;2.80;99.90;;;;;;5021004;28;20568;-76
2022/12/21 01:31:59;;;;;;;12.55;6.07;;;2.90;99.90;;;;;;5020259;28;20084;-74
2022/12/21 01:34:25;;;;;;;18.70;6.38;;;3.10;99.90;;;;;;5004163;28;20072;-75
2022/12/21 01:36:50;;;;;;;15.63;6.50;;;3.20;99.90;;;;;;4996864;28;20029;-75
2022/12/21 01:39:16;;;;;;;13.38;6.38;;;3.30;99.90;;;;;;5002064;28;20030;-74
2022/12/21 01:41:42;;;;;;;15.30;7.20;;;3.40;99.90;;;;;;5011052;28;20071;-75
2022/12/21 01:44:44;;;;;;;15.82;7.15;;;3.50;99.90;;;;;;5022301;28;20037;-75
2022/12/21 01:47:17;;;;;;;14.52;6.18;;;3.50;99.90;;;;;;5019214;28;20059;-75
2022/12/21 01:49:52;;;;;;;11.02;5.95;;;3.60;99.90;;;;;;5019884;28;20144;-75
2022/12/21 01:52:18;;;;;;;14.07;5.88;;;3.70;99.90;;;;;;5017175;28;20103;-74
2022/12/21 01:54:52;;;;;;;13.05;6.07;;;3.80;99.90;;;;;;5020697;28;20548;-75
2022/12/21 01:57:18;;;;;;;11.77;5.78;;;3.80;99.90;;;;;;5015453;28;20018;-74
2022/12/21 01:59:56;;;;;;;10.35;5.90;;;3.90;99.90;;;;;;5019712;28;20499;-75
2022/12/21 02:02:25;;;;;;;13.10;5.93;;;3.90;99.90;;;;;;5001837;28;20512;-73
2022/12/21 02:04:52;;;;;;;14.93;6.93;;;4.00;99.90;;;;;;5018880;28;21791;-76
2022/12/21 02:07:20;;;;;;;13.20;6.25;;;4.00;99.90;;;;;;4997292;28;20111;-75
2022/12/21 02:09:46;;;;;;;16.05;6.22;;;4.00;99.90;;;;;;4996034;28;20038;-75
2022/12/21 02:12:15;;;;;;;15.60;6.93;;;3.90;99.90;;;;;;5002710;28;20053;-75
2022/12/21 02:14:46;;;;;;;14.13;5.88;;;3.80;99.90;;;;;;5018871;28;20029;-75
2022/12/21 02:17:38;;;;;;;18.75;6.78;;;3.90;99.90;;;;;;5019260;28;20384;-76
2022/12/21 02:20:13;;;;;;;13.82;6.72;;;3.80;99.90;;;;;;5018868;28;20037;-75
2022/12/21 02:22:38;;;;;;;12.98;6.93;;;3.60;99.90;;;;;;5008294;28;20096;-74
2022/12/21 02:25:25;;;;;;;15.75;6.57;;;3.40;99.90;;;;;;5018095;28;20033;-75
2022/12/21 02:28:00;;;;;;;18.95;6.47;;;3.40;99.90;;;;;;5009055;28;20427;-74
2022/12/21 02:30:51;;;;;;;15.57;6.10;;;3.50;99.90;;;;;;5001928;28;20033;-75
2022/12/21 02:33:20;;;;;;;;;;;3.60;99.90;;;;;;5015618;28;20034;-75
2022/12/21 02:35:48;;;;;;;14.23;5.70;;;3.70;99.90;;;;;;5013659;28;19913;-75
2022/12/21 02:38:30;;;;;;;19.70;6.38;;;3.80;99.90;;;;;;4998043;28;20041;-75
2022/12/21 02:41:01;;;;;;;18.30;6.07;;;3.80;99.90;;;;;;5000058;28;20119;-75
2022/12/21 02:46:28;;;;;;;25.42;6.53;;;3.90;99.90;;;;;;5016271;28;20397;-74
2022/12/21 02:49:11;;;;;;;23.95;6.32;;;3.90;99.90;;;;;;5014993;28;20030;-74
2022/12/21 02:52:02;;;;;;;18.02;5.85;;;4.00;99.90;;;;;;4999198;28;20037;-75
2022/12/21 02:54:28;;;;;;;14.40;5.93;;;4.10;99.90;;;;;;4966209;28;20424;-75
2022/12/21 02:56:54;;;;;;;20.90;6.97;;;4.10;99.90;;;;;;5018203;28;20030;-75
2022/12/21 02:59:26;;;;;;;20.73;6.05;;;4.10;99.90;;;;;;5017036;28;20519;-75
2022/12/21 03:02:28;;;;;;;17.45;5.88;;;4.10;99.90;;;;;;5016724;28;20468;-74
2022/12/21 03:05:14;;;;;;;14.20;5.30;;;4.20;99.90;;;;;;5004533;28;20401;-74
2022/12/21 03:07:43;;;;;;;25.75;6.50;;;4.20;99.90;;;;;;5016975;28;20038;-74
2022/12/21 03:10:36;;;;;;;16.05;5.90;;;4.30;99.90;;;;;;5018039;28;20050;-75
2022/12/21 03:13:17;;;;;;;16.83;5.20;;;4.40;99.90;;;;;;5014067;28;20284;-75
2022/12/21 03:15:52;;;;;;;16.60;5.43;;;4.40;99.90;;;;;;5021811;28;20064;-74
2022/12/21 03:18:51;;;;;;;18.55;5.32;;;4.50;99.90;;;;;;5014310;28;20407;-74
2022/12/21 03:21:31;;;;;;;21.58;5.82;;;4.50;99.90;;;;;;5014124;28;20034;-75
2022/12/21 03:24:02;;;;;;;19.10;5.85;;;4.60;99.90;;;;;;5013420;28;20042;-74
2022/12/21 03:26:38;;;;;;;15.35;5.28;;;4.60;99.90;;;;;;5014218;28;20136;-75
2022/12/21 03:29:05;;;;;;;17.63;4.93;;;4.70;99.90;;;;;;4998489;28;20080;-74
2022/12/21 03:31:36;;;;;;;20.48;5.60;;;4.80;99.90;;;;;;5018069;28;20032;-74
2022/12/21 03:34:18;;;;;;;21.08;5.40;;;4.90;99.90;;;;;;5016837;28;20041;-76
2022/12/21 03:36:59;;;;;;;21.52;5.13;;;5.00;99.90;;;;;;4998390;28;20516;-75
2022/12/21 03:39:29;;;;;;;21.48;6.40;;;5.20;99.90;;;;;;5014046;28;20048;-75
2022/12/21 03:42:18;;;;;;;15.23;4.43;;;5.20;99.90;;;;;;5018063;28;20072;-74
2022/12/21 03:44:52;;;;;;;18.92;5.35;;;5.30;99.90;;;;;;5017921;28;20630;-75
2022/12/21 03:47:27;;;;;;;22.95;4.80;;;5.40;99.90;;;;;;5022081;28;20045;-74
2022/12/21 03:49:58;;;;;;;16.65;4.38;;;5.50;99.90;;;;;;5022502;28;20041;-74
2022/12/21 03:52:28;;;;;;;;;;;5.60;99.90;;;;;;5000212;28;20110;-75
2022/12/21 03:55:03;;;;;;;15.52;3.97;;;5.60;99.90;;;;;;5021843;28;20316;-75
2022/12/21 03:57:29;;;;;;;22.80;4.45;;;5.70;99.90;;;;;;5002773;28;20026;-75
2022/12/21 03:59:59;;;;;;;22.52;4.22;;;5.70;99.90;;;;;;5003673;28;20040;-74
2022/12/21 04:02:27;;;;;;;16.85;4.40;;;5.70;99.90;;;;;;5021070;28;20067;-75
2022/12/21 04:05:10;;;;;;;14.30;3.88;;;5.80;99.90;;;;;;5002910;28;20140;-75
2022/12/21 04:07:37;;;;;;;21.80;4.43;;;5.80;99.90;;;;;;5021508;28;20033;-74
2022/12/21 04:10:13;;;;;;;15.60;3.92;;;5.90;99.90;;;;;;5020686;28;20079;-74
2022/12/21 04:12:39;;;;;;;14.73;3.95;;;6.10;99.90;;;;;;5001266;28;20505;-74
2022/12/21 04:16:03;;;;;;;14.43;3.42;;;6.30;99.90;;;;;;5000331;28;20045;-74
2022/12/21 04:19:57;;;;;;;16.45;2.92;;;6.40;99.90;;;;;;5016093;28;20033;-74
2022/12/21 04:21:02;;;;;;;17.45;2.95;;;6.50;99.90;;;;;;5017496;28;20029;-75
2022/12/21 04:28:57;;;;;;;20.65;3.25;;;6.70;99.90;;;;;;5020659;28;20409;-75
2022/12/21 04:31:22;;;;;;;16.33;2.10;;;6.90;99.90;;;;;;5002519;28;20125;-75
2022/12/21 04:33:48;;;;;;;17.50;2.00;;;7.00;99.90;;;;;;5021127;28;20381;-75
2022/12/21 04:38:57;;;;;;;20.88;2.88;;;7.40;99.90;;;;;;5019677;28;20056;-75
2022/12/21 04:41:23;;;;;;;21.70;2.10;;;7.40;99.90;;;;;;5001727;28;20045;-75
2022/12/21 04:43:49;;;;;;;12.65;1.92;;;7.40;99.90;;;;;;5024564;28;20088;-75
2022/12/21 04:46:16;;;;;;;13.82;1.67;;;7.40;99.90;;;;;;5040829;28;20080;-75
2022/12/21 04:48:42;;;;;;;19.60;2.20;;;7.60;99.90;;;;;;5026939;28;20042;-75
2022/12/21 04:51:11;;;;;;;15.38;1.90;;;7.80;99.90;;;;;;5018830;28;20033;-74
2022/12/21 04:53:37;;;;;;;22.40;2.55;;;7.80;99.90;;;;;;5019329;28;20033;-75
2022/12/21 04:56:03;;;;;;;24.67;1.98;;;7.70;99.90;;;;;;5019667;28;20401;-74
2022/12/21 04:58:29;;;;;;;15.63;2.10;;;7.80;99.90;;;;;;5019035;28;20029;-75
2022/12/21 05:00:55;;;;;;;22.42;2.88;;;7.90;99.90;;;;;;5020986;28;20040;-75
2022/12/21 05:03:21;;;;;;;26.67;2.67;;;8.00;99.90;;;;;;5018933;28;20022;-74
2022/12/21 05:05:47;;;;;;;29.70;2.53;;;8.10;99.90;;;;;;5002238;28;20408;-75
2022/12/21 05:08:13;;;;;;;23.23;2.55;;;8.20;99.90;;;;;;5001558;28;20041;-75
2022/12/21 05:10:39;;;;;;;16.38;2.25;;;8.20;99.90;;;;;;5008944;28;20660;-74
2022/12/21 05:13:04;;;;;;;23.67;2.88;;;8.20;99.90;;;;;;5019585;28;20029;-75
2022/12/21 05:15:30;;;;;;;21.67;2.20;;;8.10;99.90;;;;;;5019953;28;20035;-75
2022/12/21 05:17:57;;;;;;;24.83;2.63;;;8.20;99.90;;;;;;5017997;28;20250;-75
2022/12/21 05:20:22;;;;;;;22.83;2.40;;;8.20;99.90;;;;;;5002918;28;20057;-75
2022/12/21 05:22:48;;;;;;;24.33;2.65;;;8.20;99.90;;;;;;4998562;28;20555;-74
2022/12/21 05:25:14;;;;;;;19.13;1.63;;;8.10;99.90;;;;;;5015392;28;20051;-74
2022/12/21 05:27:39;;;;;;;20.58;2.15;;;8.10;99.90;;;;;;5016149;28;20039;-74
2022/12/21 05:30:05;;;;;;;15.85;2.05;;;8.30;99.90;;;;;;4998164;28;20037;-75
2022/12/21 05:32:31;;;;;;;17.30;1.95;;;8.30;99.90;;;;;;5017014;28;20071;-75
2022/12/21 05:34:57;;;;;;;23.45;1.98;;;8.30;99.90;;;;;;5018204;28;20033;-75
2022/12/21 05:37:22;;;;;;;21.67;2.00;;;8.40;99.90;;;;;;5016081;28;20037;-74
2022/12/21 05:39:48;;;;;;;12.95;2.03;;;8.50;99.90;;;;;;5002697;28;20508;-75
2022/12/21 05:42:13;;;;;;;21.65;2.47;;;8.50;99.90;;;;;;5019272;28;20022;-75
2022/12/21 05:44:39;;;;;;;13.52;1.83;;;8.50;99.90;;;;;;5015960;28;20028;-74
2022/12/21 05:47:04;;;;;;;13.55;1.58;;;8.40;99.90;;;;;;5005093;28;20280;-74
2022/12/21 05:49:30;;;;;;;12.55;1.40;;;8.50;99.90;;;;;;5020726;28;20044;-74
2022/12/21 05:51:56;;;;;;;19.45;1.80;;;8.40;99.90;;;;;;5016443;28;20039;-75
2022/12/21 05:54:21;;;;;;;11.93;1.33;;;8.40;99.90;;;;;;5009460;28;20404;-75
2022/12/21 05:56:47;;;;;;;14.77;2.25;;;8.30;99.90;;;;;;4991738;28;20061;-75
2022/12/21 05:59:12;;;;;;;10.80;1.48;;;8.40;99.90;;;;;;5001873;28;20029;-75
2022/12/21 06:01:38;;;;;;;14.48;1.75;;;8.30;99.90;;;;;;5017658;28;20022;-75
2022/12/21 06:04:04;;;;;;;16.30;2.30;;;8.20;99.90;;;;;;5017178;28;20179;-75
2022/12/21 06:06:29;;;;;;;14.77;1.55;;;8.40;99.90;;;;;;5014515;28;20021;-75
2022/12/21 06:08:55;;;;;;;19.55;1.90;;;8.40;99.90;;;;;;4990164;28;20454;-74
2022/12/21 06:11:23;;;;;;;22.55;2.50;;;8.40;99.90;;;;;;5019811;28;20104;-74
2022/12/21 06:13:50;;;;;;;12.73;1.30;;;8.60;99.90;;;;;;5000929;28;20044;-75
2022/12/21 06:16:24;;;;;;;19.65;1.63;;;8.70;99.90;;;;;;5019967;28;20242;-74
2022/12/21 06:18:50;;;;;;;20.20;1.80;;;8.60;99.90;;;;;;5016870;28;20445;-75
2022/12/21 06:21:17;;;;;;;18.92;2.38;;;8.60;99.90;;;;;;4995668;28;20052;-74
2022/12/21 06:23:44;;;;;;;14.63;1.88;;;8.60;99.90;;;;;;5016905;28;20028;-75
2022/12/21 06:26:12;;;;;;;12.85;1.63;;;8.70;99.90;;;;;;5016565;28;20057;-75
2022/12/21 06:28:38;;;;;;;20.42;2.63;;;8.80;99.90;;;;;;5015930;28;20108;-75
2022/12/21 06:31:06;;;;;;;12.13;1.85;;;8.90;99.90;;;;;;5015878;28;20110;-73
2022/12/21 06:33:33;;;;;;;17.02;1.90;;;8.90;99.90;;;;;;5015253;28;20555;-74
2022/12/21 06:35:58;;;;;;;19.77;2.15;;;8.90;99.90;;;;;;5000063;28;20571;-75
2022/12/21 06:38:24;;;;;;;20.25;2.08;;;8.90;99.90;;;;;;4993040;28;20040;-75
2022/12/21 06:40:58;;;;;;;18.73;2.15;;;8.90;99.90;;;;;;4978957;28;20540;-75
2022/12/21 06:43:26;;;;;;;18.30;1.92;;;8.90;99.90;;;;;;5000395;28;20044;-74
2022/12/21 06:46:02;;;;;;;14.55;1.92;;;8.90;99.90;;;;;;5018405;28;20118;-75
2022/12/21 06:48:30;;;;;;;14.73;2.10;;;8.80;99.90;;;;;;5018254;28;20500;-75
2022/12/21 06:51:00;;;;;;;16.17;2.28;;;8.80;99.90;;;;;;5018390;28;20437;-73
2022/12/21 06:53:29;;;;;;;15.10;2.47;;;8.90;99.90;;;;;;5017796;28;20021;-74
2022/12/21 06:56:03;;;;;;;15.77;2.70;;;8.90;99.90;;;;;;5010591;28;20041;-75
2022/12/21 06:58:29;;;;;;;14.75;2.05;;;8.90;99.90;;;;;;5016225;28;20721;-74
2022/12/21 07:00:56;;;;;;;17.52;1.80;;;8.80;99.90;;;;;;5000716;28;20152;-75
2022/12/21 07:03:22;;;;;;;15.25;1.83;;;8.80;99.90;;;;;;5019081;28;20060;-75
2022/12/21 07:05:49;;;;;;;20.30;2.65;;;8.70;99.90;;;;;;5015000;28;20505;-75
2022/12/21 07:08:15;;;;;;;24.25;3.03;;;8.80;99.90;;;;;;5011936;28;20115;-74
2022/12/21 07:10:41;;;;;;;11.13;1.83;;;8.80;99.90;;;;;;5016999;28;20040;-75
2022/12/21 07:13:06;;;;;;;10.65;2.13;;;8.80;99.90;;;;;;4996327;28;20025;-74
2022/12/21 07:15:33;;;;;;;17.40;3.10;;;8.80;99.90;;;;;;5003907;28;20115;-75
2022/12/21 07:17:58;;;;;;;18.88;2.45;;;8.90;99.90;;;;;;5021783;28;20069;-75
2022/12/21 07:20:24;;;;;;;11.13;2.55;;;9.00;99.90;;;;;;5009729;28;20112;-74
2022/12/21 07:22:50;;;;;;;23.45;3.22;;;9.20;99.90;;;;;;5021639;28;20029;-75
2022/12/21 07:25:15;;;;;;;26.85;2.80;;;9.20;99.90;;;;;;5020504;28;20034;-75
2022/12/21 07:27:41;;;;;;;20.33;3.03;;;9.30;99.90;;;;;;5011582;28;20029;-75
2022/12/21 07:30:07;;;;;;;15.00;2.55;;;9.40;99.90;;;;;;4995732;28;20037;-76
2022/12/21 07:32:33;;;;;;;14.45;1.80;;;9.40;99.90;;;;;;4308087;28;10000614;-74
2022/12/21 07:34:59;;;;;;;17.67;2.05;;;9.40;99.90;;;;;;5019466;28;20076;-75
2022/12/21 07:37:24;;;;;;;14.27;2.22;;;9.40;99.90;;;;;;4998787;28;20707;-73
2022/12/21 07:39:50;;;;;;;20.65;2.50;;;9.50;99.90;;;;;;5015859;28;20121;-74
2022/12/21 07:42:15;;;;;;;13.75;2.42;;;9.50;99.90;;;;;;4995001;28;20989;-74
2022/12/21 07:44:41;;;;;;;14.48;1.85;;;9.50;99.90;;;;;;5008417;28;20112;-74
2022/12/21 07:47:07;;;;;;;17.30;2.33;;;9.50;99.90;;;;;;5004841;28;20037;-75
2022/12/21 07:49:34;;;;;;;9.65;1.83;;;9.60;99.90;;;;;;5009652;28;20094;-75
2022/12/21 07:52:00;;;;;;;16.45;2.60;;;9.70;99.90;;;;;;5005490;28;20029;-74
2022/12/21 07:54:26;;;;;;;14.95;2.35;;;9.60;99.90;;;;;;5009101;28;20029;-75
2022/12/21 07:56:51;;;;;;;19.88;2.00;;;9.70;99.90;;;;;;4986162;28;20388;-75
2022/12/21 07:59:17;;;;;;;16.30;2.38;;;9.70;99.90;;;;;;5018275;28;20303;-74
2022/12/21 08:01:42;;;;;;;11.90;2.08;;;9.60;99.90;;;;;;5000002;28;20539;-74
2022/12/21 08:04:09;;;;;;;15.63;2.60;;;9.70;99.90;;;;;;5016047;28;20075;-75
2022/12/21 08:06:34;;;;;;;20.35;2.30;;;9.70;99.90;;;;;;5015504;28;20110;-74
2022/12/21 08:09:01;;;;;;;16.58;2.03;;;9.70;99.90;;;;;;5008026;28;20037;-75
2022/12/21 08:11:28;;;;;;;19.13;2.67;;;9.70;99.90;;;;;;4999605;28;20049;-74
2022/12/21 08:13:54;;;;;;;14.02;1.88;;;9.80;99.90;;;;;;5017673;28;20523;-74
2022/12/21 08:16:20;;;;;;;15.27;2.25;;;9.80;99.90;;;;;;5001540;28;20214;-74
2022/12/21 08:18:46;;;;;;;15.63;2.15;;;9.80;99.90;;;;;;5000395;28;20060;-75
2022/12/21 08:21:12;;;;;;;20.00;1.85;;;9.80;99.90;;;;;;5012001;28;20311;-74
2022/12/21 08:23:38;;;;;;;15.13;2.35;;;9.80;99.90;;;;;;5014935;28;20147;-74
2022/12/21 08:26:06;;;;;;;17.35;2.65;;;9.80;99.90;;;;;;5014712;28;20497;-73
2022/12/21 08:28:32;;;;;;;11.75;1.48;;;9.90;99.90;;;;;;5015053;28;20563;-74
2022/12/21 08:31:07;;;;;;;14.65;2.92;;;9.90;99.90;;;;;;5016036;28;20026;-74
2022/12/21 08:33:33;;;;;;;14.05;2.17;;;10.00;99.90;;;;;;5005946;28;20492;-74
2022/12/21 08:35:59;;;;;;;19.67;2.10;;;10.00;99.90;;;;;;5015842;28;20284;-75
2022/12/21 08:38:25;;;;;;;14.38;1.55;;;10.00;99.90;;;;;;5017307;28;20547;-74
2022/12/21 08:40:51;;;;;;;14.70;1.98;;;10.00;99.90;;;;;;5016109;28;20501;-75
2022/12/21 08:43:17;;;;;;;16.13;2.42;;;10.00;99.90;;;;;;5014054;28;20042;-74
2022/12/21 08:45:44;;;;;;;10.55;1.55;;;10.00;99.90;;;;;;5004188;28;20029;-74
2022/12/21 08:48:10;;;;;;;21.70;2.55;;;10.00;99.90;;;;;;5010492;28;20033;-75
2022/12/21 08:50:36;;;;;;;15.65;2.10;;;10.00;99.90;;;;;;4996431;28;20043;-74
2022/12/21 08:53:01;;;;;;;12.60;1.67;;;10.00;99.90;;;;;;4991449;28;20057;-74
2022/12/21 08:55:28;;;;;;;17.95;1.80;;;10.10;99.90;;;;;;5014246;28;20098;-74
2022/12/21 08:57:53;;;;;;;11.43;1.55;;;10.10;99.90;;;;;;5010550;28;20029;-73
2022/12/21 09:00:19;;;;;;;18.42;3.72;;;10.10;99.90;;;;;;5017577;28;20558;-77
2022/12/21 09:02:45;;;;;;;11.82;2.05;;;10.20;99.90;;;;;;4995209;28;20147;-77
2022/12/21 09:05:11;;;;;;;23.30;2.40;;;10.10;99.90;;;;;;5013737;28;20026;-74
2022/12/21 09:07:36;;;;;;;23.38;2.38;;;10.20;99.90;;;;;;5012009;28;20083;-76
2022/12/21 09:10:02;;;;;;;23.42;2.20;;;10.20;99.90;;;;;;5004692;28;20045;-74
2022/12/21 09:12:28;;;;;;;9.18;1.75;;;10.20;99.90;;;;;;5010372;28;20220;-74
2022/12/21 09:14:53;;;;;;;14.60;2.08;;;10.30;99.90;;;;;;5015852;28;20050;-75
2022/12/21 09:17:19;;;;;;;18.73;1.95;;;10.30;99.90;;;;;;5013081;28;20212;-75
2022/12/21 09:19:44;;;;;;;10.77;1.60;;;10.30;99.90;;;;;;4979736;28;20034;-75
2022/12/21 09:22:12;;;;;;;13.85;1.63;;;10.30;99.90;;;;;;4996645;28;20112;-74
2022/12/21 09:24:37;;;;;;;11.82;1.30;;;10.40;99.90;;;;;;5011606;28;20028;-75
2022/12/21 09:27:03;;;;;;;13.23;1.63;;;10.40;99.90;;;;;;5015347;28;20112;-74
2022/12/21 09:29:29;;;;;;;11.40;2.20;;;10.40;99.90;;;;;;5019258;28;20052;-74
2022/12/21 09:31:55;;;;;;;16.50;1.80;;;10.40;99.90;;;;;;5001154;28;20025;-77
2022/12/21 09:34:20;;;;;;;13.93;1.58;;;10.40;99.90;;;;;;4995746;28;20029;-75
2022/12/21 09:36:46;;;;;;;13.90;2.03;;;10.40;99.90;;;;;;5000272;28;20034;-76
2022/12/21 09:39:12;;;;;;;14.63;1.70;;;10.40;99.90;;;;;;5001102;28;20408;-77
2022/12/21 09:41:48;;;;;;;9.68;1.33;;;10.40;99.90;;;;;;5020676;28;20508;-74
2022/12/21 09:44:32;;;;;;;10.40;1.50;;;10.40;99.90;;;;;;5020109;28;20298;-74
2022/12/21 09:47:00;;;;;;;9.95;1.65;;;10.40;99.90;;;;;;4988771;28;20037;-74
2022/12/21 09:49:33;;;;;;;13.55;2.92;;;10.40;99.90;;;;;;5015676;28;20055;-80
2022/12/21 09:52:02;;;;;;;9.32;1.35;;;10.40;99.90;;;;;;5012106;28;20044;-76
2022/12/21 09:54:42;;;;;;;8.02;1.83;;;10.40;99.90;;;;;;4996277;28;20121;-79
2022/12/21 09:57:12;;;;;;;8.68;0.95;;;10.40;99.90;;;;;;5010818;28;20092;-77
2022/12/21 09:59:38;;;;;;;10.48;1.30;;;10.30;99.90;;;;;;4990916;28;21202;-76
2022/12/21 10:02:22;;;;;;;9.70;1.60;;;10.30;99.90;;;;;;4993908;28;20042;-75
2022/12/21 10:05:18;;;;;;;9.52;1.27;;;10.30;99.90;;;;;;5007261;28;20134;-77
2022/12/21 10:08:02;;;;;;;13.45;1.52;;;10.40;99.90;;;;;;5019793;28;20033;-77
2022/12/21 10:10:33;;;;;;;6.97;1.85;;;10.40;99.90;;;;;;5010864;28;20041;-75
2022/12/21 10:13:21;;;;;;;13.80;1.60;;;10.40;99.90;;;;;;5013373;28;20029;-79
2022/12/21 10:16:12;;;;;;;12.45;1.83;;;10.40;99.90;;;;;;5000118;28;20137;-80
2022/12/21 10:18:54;;;;;;;10.88;1.50;;;10.40;99.90;;;;;;4992775;28;20048;-76
2022/12/21 10:21:40;;;;;;;12.20;1.60;;;10.40;99.90;;;;;;5016584;28;20123;-78
2022/12/21 10:24:33;;;;;;;20.20;1.88;;;10.60;99.90;;;;;;4982560;28;20398;-76
2022/12/21 10:27:10;;;;;;;11.68;2.08;;;10.90;99.90;;;;;;4980449;28;20033;-74
2022/12/21 10:29:40;;;;;;;16.63;1.80;;;11.20;99.90;;;;;;5000273;28;20099;-74
2022/12/21 10:32:12;;;;;;;12.80;1.55;;;11.30;99.90;;;;;;5000507;28;20365;-75
2022/12/21 10:34:46;;;;;;;12.52;1.42;;;11.30;99.90;;;;;;4999787;28;20029;-76
2022/12/21 10:37:17;;;;;;;12.25;1.83;;;11.40;99.90;;;;;;5018442;28;20500;-76
2022/12/21 10:39:43;;;;;;;;;;;11.50;99.90;;;;;;5000891;28;20056;-77
2022/12/21 10:42:19;;;;;;;11.95;1.67;;;11.50;99.90;;;;;;4998915;28;19913;-82
2022/12/21 10:44:47;;;;;;;16.17;1.92;;;11.40;99.90;;;;;;5007707;28;20495;-81
2022/12/21 10:47:15;;;;;;;8.68;1.65;;;11.10;99.90;;;;;;4998106;28;20419;-74
2022/12/21 10:49:43;;;;;;;8.18;1.75;;;11.00;99.90;;;;;;5001705;28;20516;-77
2022/12/21 10:52:32;;;;;;;12.30;1.60;;;10.90;99.90;;;;;;4759494;28;10001052;-77
2022/12/21 10:54:58;;;;;;;11.75;1.70;;;10.90;99.90;;;;;;5013172;28;20985;-79
2022/12/21 10:57:32;;;;;;;13.73;1.50;;;10.80;99.90;;;;;;4994579;28;20516;-76
2022/12/21 11:00:04;;;;;;;5.53;1.20;;;10.90;99.90;;;;;;5019098;28;20048;-77
2022/12/21 11:02:41;;;;;;;8.80;1.75;;;11.00;99.90;;;;;;4999357;28;20025;-73
2022/12/21 11:05:36;;;;;;;10.90;1.80;;;11.00;99.90;;;;;;5016059;28;20095;-75
2022/12/21 11:08:19;;;;;;;10.25;1.80;;;11.00;99.90;;;;;;5003713;28;20414;-74
2022/12/21 11:10:50;;;;;;;7.32;1.52;;;11.00;99.90;;;;;;4983425;28;20125;-75
2022/12/21 11:13:18;;;;;;;12.00;1.55;;;11.00;99.90;;;;;;5014523;28;20038;-74
2022/12/21 11:16:01;;;;;;;7.75;1.50;;;10.90;99.90;;;;;;5001971;28;20052;-76
2022/12/21 11:18:44;;;;;;;7.35;1.10;;;10.80;99.90;;;;;;5008519;28;20045;-75
2022/12/21 11:21:20;;;;;;;10.50;1.40;;;10.80;99.90;;;;;;5010302;28;20087;-75
2022/12/21 11:23:57;;;;;;;10.02;1.58;;;10.70;99.90;;;;;;4990873;28;20038;-75
2022/12/21 11:26:30;;;;;;;10.57;2.28;;;10.80;99.90;;;;;;4998629;28;20644;-75
2022/12/21 11:29:06;;;;;;;13.10;1.83;;;11.00;99.90;;;;;;4993868;28;20037;-74
2022/12/21 11:31:35;;;;;;;11.75;1.60;;;11.00;99.90;;;;;;5012056;28;20025;-77
2022/12/21 11:34:01;;;;;;;15.50;1.73;;;11.10;99.90;;;;;;4994580;28;20056;-75
2022/12/21 11:36:26;;;;;;;7.72;1.80;;;11.20;99.90;;;;;;4990973;28;20041;-75
2022/12/21 11:38:52;;;;;;;8.43;1.25;;;11.20;99.90;;;;;;5007274;28;20434;-75
2022/12/21 11:41:28;;;;;;;7.95;1.40;;;11.20;99.90;;;;;;5012382;28;20057;-75
2022/12/21 11:43:55;;;;;;;7.57;1.10;;;11.20;99.90;;;;;;4998303;28;20029;-74
2022/12/21 11:46:33;;;;;;;9.00;1.83;;;11.30;99.90;;;;;;4997120;28;20129;-75
2022/12/21 11:49:17;;;;;;;5.05;0.93;;;11.40;99.90;;;;;;4993791;28;20069;-75
2022/12/21 11:52:17;;;;;;;8.30;1.15;;;11.40;99.90;;;;;;4993179;28;20033;-74
2022/12/21 11:55:18;;;;;;;6.38;0.82;;;11.50;99.90;;;;;;4997421;28;20311;-75
2022/12/21 11:58:05;;;;;;;8.93;1.47;;;11.60;99.90;;;;;;4915654;29;20031;-75
2022/12/21 12:00:51;;;;;;;6.93;1.13;;;11.50;99.90;;;;;;4991471;28;20356;-75
2022/12/21 12:03:34;;;;;;;14.52;1.63;;;11.40;99.90;;;;;;5012993;28;20068;-75
2022/12/21 12:06:37;;;;;;;8.60;0.98;;;11.20;99.90;;;;;;5010570;28;20064;-75
2022/12/21 12:09:33;;;;;;;6.00;0.98;;;11.30;99.90;;;;;;4993379;28;20393;-75
2022/12/21 12:12:08;;;;;;;7.70;1.25;;;11.50;99.90;;;;;;4997503;28;20044;-75
2022/12/21 12:15:23;;;;;;;10.20;1.10;;;11.70;99.90;;;;;;5010242;28;20435;-74
2022/12/21 12:18:19;;;;;;;6.28;0.80;;;11.90;99.90;;;;;;4945483;28;20043;-76
2022/12/21 12:20:51;;;;;;;5.60;1.13;;;12.10;99.90;;;;;;4999701;28;20038;-74
2022/12/21 12:23:24;;;;;;;5.00;0.60;;;12.20;99.90;;;;;;5011654;28;20032;-76
2022/12/21 12:26:09;;;;;;;5.97;0.77;;;12.20;99.90;;;;;;5013963;28;20033;-75
2022/12/21 12:28:42;;;;;;;9.95;1.45;;;12.20;99.90;;;;;;5010530;28;20049;-75
2022/12/21 12:31:26;;;;;;;4.53;0.55;;;12.20;99.90;;;;;;5000720;28;20136;-74
2022/12/21 12:34:22;;;;;;;6.35;0.75;;;12.10;99.90;;;;;;4998938;28;20037;-75
2022/12/21 12:37:11;;;;;;;4.85;0.75;;;12.10;99.90;;;;;;5009639;28;20037;-75
2022/12/21 12:39:57;;;;;;;5.18;0.65;;;12.20;99.90;;;;;;5000970;28;20096;-77
2022/12/21 12:42:32;;;;;;;4.43;0.65;;;12.20;99.90;;;;;;4988695;28;20049;-77
2022/12/21 12:45:03;;;;;;;2.50;0.60;;;12.20;99.90;;;;;;5003125;28;20455;-77
2022/12/21 12:47:46;;;;;;;;;;;12.30;99.90;;;;;;5016643;28;20480;-76
2022/12/21 12:50:30;;;;;;;3.65;0.50;;;12.10;99.90;;;;;;5003998;28;19976;-77
2022/12/21 12:53:25;;;;;;;7.10;1.00;;;12.00;99.90;;;;;;4993246;28;20025;-77
2022/12/21 12:56:10;;;;;;;3.25;0.70;;;11.90;99.90;;;;;;4984194;28;20029;-77
2022/12/21 12:59:06;;;;;;;5.75;0.80;;;11.90;99.90;;;;;;4996738;28;20035;-76
2022/12/21 13:01:44;;;;;;;3.65;0.63;;;12.00;99.90;;;;;;5011704;28;20021;-77
2022/12/21 13:05:02;;;;;;;3.88;0.50;;;12.10;99.90;;;;;;4994157;28;20500;-77
2022/12/21 13:07:37;;;;;;;1.13;0.40;;;12.20;99.90;;;;;;4995308;28;20430;-77
2022/12/21 13:10:20;;;;;;;3.95;0.52;;;12.30;99.90;;;;;;5015475;28;20084;-77
2022/12/21 13:13:02;;;;;;;0.73;0.40;;;12.20;99.90;;;;;;5015396;28;20609;-80
2022/12/21 13:15:43;;;;;;;1.38;0.50;;;12.30;99.90;;;;;;5014836;28;20041;-77
2022/12/21 13:18:15;;;;;;;3.70;0.82;;;12.20;99.90;;;;;;5016194;28;20022;-77
2022/12/21 13:20:42;;;;;;;2.67;0.45;;;12.10;99.90;;;;;;4998882;28;20508;-77